createdAt,value
2018-10-02T00:02:25.220Z,3.27
2018-10-02T00:04:52.995Z,3.87
2018-10-02T00:07:20.776Z,4.33
2018-10-02T00:09:48.515Z,3.97
2018-10-02T00:12:22.090Z,2.87
2018-10-02T00:14:49.823Z,3.70
2018-10-02T00:17:17.533Z,3.63
2018-10-02T00:19:45.302Z,3.67
2018-10-02T00:22:13.065Z,5.50
2018-10-02T00:24:43.589Z,5.20
2018-10-02T00:27:11.337Z,4.83
2018-10-02T00:29:39.098Z,5.73
2018-10-02T00:32:07.023Z,5.00
2018-10-02T00:34:34.638Z,4.20
2018-10-02T00:37:02.382Z,4.40
2018-10-02T00:39:30.141Z,5.77
2018-10-02T00:41:57.867Z,6.50
2018-10-02T00:44:25.597Z,6.13
2018-10-02T00:46:53.375Z,6.40
2018-10-02T00:49:21.174Z,5.90
2018-10-02T00:51:48.889Z,5.23
2018-10-02T00:54:16.628Z,4.47
2018-10-02T00:56:44.363Z,4.60
2018-10-02T00:59:12.123Z,4.20
2018-10-02T01:01:39.870Z,5.13
2018-10-02T01:04:07.587Z,5.37
2018-10-02T01:06:35.349Z,4.60
2018-10-02T01:09:05.176Z,4.37
2018-10-02T01:11:32.928Z,4.23
2018-10-02T01:14:00.739Z,3.73
2018-10-02T01:16:28.515Z,4.47
2018-10-02T01:18:56.287Z,4.73
2018-10-02T01:21:23.995Z,5.70
2018-10-02T01:23:51.743Z,4.67
2018-10-02T01:26:19.506Z,5.00
2018-10-02T01:28:47.203Z,5.50
2018-10-02T01:31:15.047Z,4.77
2018-10-02T01:33:42.789Z,4.80
2018-10-02T01:36:10.535Z,4.97
2018-10-02T01:38:38.556Z,4.37
2018-10-02T01:41:06.329Z,3.60
2018-10-02T01:43:34.072Z,4.60
2018-10-02T01:46:02.102Z,4.23
2018-10-02T01:48:29.882Z,5.53
2018-10-02T01:50:57.823Z,3.80
2018-10-02T01:53:25.540Z,4.60
2018-10-02T01:55:53.299Z,4.37
2018-10-02T01:58:21.022Z,3.40
2018-10-02T02:00:48.812Z,3.70
2018-10-02T02:03:16.567Z,5.13
2018-10-02T02:05:44.341Z,2.43
2018-10-02T02:08:12.159Z,4.23
2018-10-02T02:10:40.011Z,5.37
2018-10-02T02:13:07.730Z,4.40
2018-10-02T02:15:35.575Z,5.10
2018-10-02T02:18:04.512Z,3.50
2018-10-02T02:20:32.450Z,4.63
2018-10-02T02:23:00.270Z,5.47
2018-10-02T02:25:28.088Z,5.00
2018-10-02T02:27:55.952Z,5.43
2018-10-02T02:30:23.810Z,4.33
2018-10-02T02:32:51.606Z,5.63
2018-10-02T02:35:19.418Z,6.30
2018-10-02T02:37:47.195Z,6.07
2018-10-02T02:40:15.191Z,5.77
2018-10-02T02:42:43.023Z,3.97
2018-10-02T02:45:10.768Z,5.83
2018-10-02T02:47:44.251Z,4.70
2018-10-02T02:50:17.663Z,6.03
2018-10-02T02:52:49.764Z,6.20
2018-10-02T02:55:17.654Z,5.33
2018-10-02T02:57:45.481Z,6.80
2018-10-02T03:00:13.343Z,6.07
2018-10-02T03:02:41.175Z,5.77
2018-10-02T03:05:09.039Z,4.40
2018-10-02T03:07:36.849Z,4.77
2018-10-02T03:10:04.755Z,3.47
2018-10-02T03:12:32.558Z,5.03
2018-10-02T03:15:00.304Z,5.97
2018-10-02T03:17:28.041Z,5.60
2018-10-02T03:19:55.903Z,5.03
2018-10-02T03:22:23.655Z,4.87
2018-10-02T03:24:51.411Z,4.87
2018-10-02T03:27:19.218Z,5.13
2018-10-02T03:29:46.998Z,5.20
2018-10-02T03:32:14.815Z,5.77
2018-10-02T03:34:42.543Z,5.03
2018-10-02T03:37:10.322Z,4.60
2018-10-02T03:39:38.135Z,4.57
2018-10-02T03:42:05.973Z,3.93
2018-10-02T03:44:33.751Z,4.20
2018-10-02T03:47:01.612Z,4.17
2018-10-02T03:49:29.373Z,4.30
2018-10-02T03:51:57.159Z,4.33
2018-10-02T03:54:26.518Z,4.80
2018-10-02T03:56:54.287Z,4.53
2018-10-02T03:59:22.111Z,4.07
2018-10-02T04:01:49.871Z,4.57
2018-10-02T04:04:17.739Z,5.07
2018-10-02T04:06:45.482Z,3.80
2018-10-02T04:09:13.359Z,4.27
2018-10-02T04:11:41.112Z,4.10
2018-10-02T04:14:08.927Z,4.20
2018-10-02T04:16:40.599Z,4.20
2018-10-02T04:19:08.541Z,3.60
2018-10-02T04:21:37.002Z,4.23
2018-10-02T04:24:06.804Z,5.10
2018-10-02T04:26:35.482Z,3.93
2018-10-02T04:29:03.939Z,3.73
2018-10-02T04:31:33.093Z,4.00
2018-10-02T04:34:00.937Z,3.13
2018-10-02T04:36:28.739Z,4.30
2018-10-02T04:38:56.581Z,3.30
2018-10-02T04:41:24.477Z,3.80
2018-10-02T04:43:52.551Z,3.87
2018-10-02T04:46:20.315Z,3.83
2018-10-02T04:48:48.274Z,3.33
2018-10-02T04:51:16.095Z,3.13
2018-10-02T04:53:43.834Z,3.20
2018-10-02T04:56:12.019Z,3.90
2018-10-02T04:58:43.229Z,3.72
2018-10-02T05:01:11.035Z,3.33
2018-10-02T05:03:39.636Z,3.10
2018-10-02T05:06:07.527Z,3.40
2018-10-02T05:08:35.465Z,2.93
2018-10-02T05:11:03.261Z,3.00
2018-10-02T05:13:31.091Z,3.43
2018-10-02T05:15:58.917Z,3.10
2018-10-02T05:18:27.011Z,2.73
2018-10-02T05:20:55.292Z,3.60
2018-10-02T05:23:23.231Z,3.23
2018-10-02T05:25:51.261Z,3.27
2018-10-02T05:28:19.212Z,2.90
2018-10-02T05:30:47.354Z,2.80
2018-10-02T05:33:15.223Z,3.03
2018-10-02T05:35:43.023Z,3.00
2018-10-02T05:38:10.865Z,2.70
2018-10-02T05:40:39.080Z,2.70
2018-10-02T05:43:07.147Z,2.77
2018-10-02T05:45:34.997Z,2.80
2018-10-02T05:48:02.856Z,3.30
2018-10-02T05:50:31.166Z,2.77
2018-10-02T05:52:59.090Z,2.60
2018-10-02T05:55:26.915Z,2.17
2018-10-02T05:57:54.789Z,2.63
2018-10-02T06:00:22.588Z,3.07
2018-10-02T06:02:50.619Z,3.10
2018-10-02T06:05:18.467Z,3.37
2018-10-02T06:07:46.347Z,2.90
2018-10-02T06:10:14.124Z,3.27
2018-10-02T06:12:41.868Z,3.20
2018-10-02T06:15:09.648Z,2.33
2018-10-02T06:17:37.479Z,2.53
2018-10-02T06:20:05.283Z,2.30
2018-10-02T06:22:33.117Z,2.83
2018-10-02T06:25:00.908Z,2.77
2018-10-02T06:27:28.758Z,2.40
2018-10-02T06:29:56.463Z,2.67
2018-10-02T06:32:24.287Z,3.00
2018-10-02T06:34:52.077Z,2.40
2018-10-02T06:37:19.899Z,3.47
2018-10-02T06:39:47.740Z,2.57
2018-10-02T06:42:15.577Z,2.70
2018-10-02T06:44:43.467Z,2.63
2018-10-02T06:47:11.191Z,3.83
2018-10-02T06:49:39.063Z,2.90
2018-10-02T06:52:07.091Z,3.50
2018-10-02T06:54:34.695Z,3.10
2018-10-02T06:57:02.558Z,2.87
2018-10-02T06:59:30.363Z,3.30
2018-10-02T07:01:58.212Z,2.67
2018-10-02T07:04:26.011Z,2.70
2018-10-02T07:06:53.904Z,4.30
2018-10-02T07:09:21.556Z,3.97
2018-10-02T07:11:49.341Z,5.97
2018-10-02T07:14:17.088Z,3.13
2018-10-02T07:16:44.921Z,2.50
2018-10-02T07:19:12.707Z,2.90
2018-10-02T07:21:40.496Z,2.20
2018-10-02T07:24:08.344Z,2.83
2018-10-02T07:26:36.242Z,2.90
2018-10-02T07:29:04.009Z,2.20
2018-10-02T07:31:31.943Z,2.53
2018-10-02T07:36:27.624Z,2.07
2018-10-02T07:38:55.429Z,2.33
2018-10-02T07:41:23.165Z,2.60
2018-10-02T07:43:50.940Z,3.63
2018-10-02T07:46:18.763Z,2.43
2018-10-02T07:48:46.643Z,2.57
2018-10-02T07:51:14.474Z,2.27
2018-10-02T07:53:42.342Z,2.47
2018-10-02T07:56:10.171Z,3.03
2018-10-02T07:58:37.963Z,2.67
2018-10-02T08:01:05.768Z,2.50
2018-10-02T08:03:33.601Z,2.67
2018-10-02T08:06:01.453Z,2.60
2018-10-02T08:08:29.256Z,2.50
2018-10-02T08:10:57.007Z,2.77
2018-10-02T08:13:24.914Z,2.90
2018-10-02T08:15:53.155Z,2.93
2018-10-02T08:18:20.928Z,3.23
2018-10-02T08:20:48.852Z,3.07
2018-10-02T08:23:16.651Z,3.60
2018-10-02T08:25:46.591Z,3.23
2018-10-02T08:28:14.755Z,3.30
2018-10-02T08:30:42.568Z,2.73
2018-10-02T08:33:10.624Z,3.60
2018-10-02T08:35:38.287Z,3.50
2018-10-02T08:38:06.201Z,3.30
2018-10-02T08:40:33.990Z,4.10
2018-10-02T08:43:01.804Z,3.33
2018-10-02T08:45:29.550Z,3.20
2018-10-02T08:47:57.470Z,4.37
2018-10-02T08:50:25.254Z,3.97
2018-10-02T08:52:53.120Z,3.97
2018-10-02T08:55:20.971Z,3.67
2018-10-02T08:57:48.783Z,3.70
2018-10-02T09:00:16.568Z,3.80
2018-10-02T09:02:44.327Z,3.67
2018-10-02T09:05:12.235Z,3.83
2018-10-02T09:07:40.089Z,4.37
2018-10-02T09:10:07.929Z,3.90
2018-10-02T09:12:35.762Z,5.03
2018-10-02T09:15:04.064Z,4.30
2018-10-02T09:17:31.866Z,4.67
2018-10-02T09:20:02.312Z,4.53
2018-10-02T09:22:30.160Z,3.80
2018-10-02T09:24:57.938Z,3.60
2018-10-02T09:27:25.761Z,4.80
2018-10-02T09:29:59.404Z,5.97
2018-10-02T09:32:33.116Z,4.47
2018-10-02T09:36:07.453Z,4.47
2018-10-02T09:38:40.939Z,4.83
2018-10-02T09:41:14.497Z,4.20
2018-10-02T09:43:53.127Z,4.63
2018-10-02T09:46:21.583Z,5.27
2018-10-02T09:48:49.639Z,5.07
2018-10-02T09:51:17.507Z,4.67
2018-10-02T09:53:45.352Z,4.60
2018-10-02T09:56:13.177Z,5.37
2018-10-02T09:58:41.004Z,4.60
2018-10-02T10:01:14.519Z,4.97
2018-10-02T10:03:42.379Z,4.23
2018-10-02T10:06:10.333Z,4.83
2018-10-02T10:08:38.126Z,4.63
2018-10-02T10:11:06.844Z,4.77
2018-10-02T10:13:35.089Z,4.90
2018-10-02T10:16:03.808Z,4.83
2018-10-02T10:18:31.623Z,4.97
2018-10-02T10:20:59.459Z,5.90
2018-10-02T10:23:28.865Z,4.17
2018-10-02T10:25:56.915Z,4.90
2018-10-02T10:28:24.725Z,5.63
2018-10-02T10:30:52.559Z,4.87
2018-10-02T10:33:20.500Z,4.50
2018-10-02T10:35:48.260Z,4.43
2018-10-02T10:38:16.137Z,4.53
2018-10-02T10:40:44.090Z,4.60
2018-10-02T10:43:11.739Z,3.80
2018-10-02T10:45:39.568Z,4.00
2018-10-02T10:48:07.431Z,3.83
2018-10-02T10:50:35.211Z,3.33
2018-10-02T10:53:03.013Z,3.33
2018-10-02T10:55:34.079Z,3.73
2018-10-02T10:58:01.884Z,3.20
2018-10-02T11:00:29.800Z,3.30
2018-10-02T11:02:57.617Z,3.00
2018-10-02T11:05:25.423Z,3.07
2018-10-02T11:07:53.238Z,2.83
2018-10-02T11:10:21.020Z,3.00
2018-10-02T11:12:48.963Z,3.60
2018-10-02T11:15:17.804Z,2.63
2018-10-02T11:17:45.608Z,2.63
2018-10-02T11:20:15.997Z,3.53
2018-10-02T11:22:43.832Z,3.63
2018-10-02T11:25:11.677Z,2.77
2018-10-02T11:27:39.436Z,3.70
2018-10-02T11:30:07.913Z,3.20
2018-10-02T11:32:35.764Z,2.73
2018-10-02T11:35:03.704Z,3.17
2018-10-02T11:37:31.499Z,2.97
2018-10-02T11:39:59.320Z,3.37
2018-10-02T11:42:27.134Z,2.67
2018-10-02T11:44:55.146Z,3.30
2018-10-02T11:47:22.763Z,2.87
2018-10-02T11:49:50.681Z,2.63
2018-10-02T11:52:18.394Z,2.80
2018-10-02T11:54:46.157Z,2.97
2018-10-02T11:57:14.001Z,2.53
2018-10-02T11:59:41.897Z,2.23
2018-10-02T12:02:09.838Z,2.83
2018-10-02T12:04:37.671Z,3.50
2018-10-02T12:07:05.471Z,2.73
2018-10-02T12:09:33.264Z,2.43
2018-10-02T12:12:01.177Z,3.03
2018-10-02T12:14:29.379Z,2.80
2018-10-02T12:16:57.028Z,2.83
2018-10-02T12:19:24.931Z,3.77
2018-10-02T12:21:52.670Z,3.50
2018-10-02T12:24:20.417Z,2.97
2018-10-02T12:26:48.195Z,2.77
2018-10-02T12:29:16.106Z,3.03
2018-10-02T12:31:43.956Z,3.30
2018-10-02T12:34:11.836Z,2.73
2018-10-02T12:36:39.680Z,2.80
2018-10-02T12:39:08.060Z,2.93
2018-10-02T12:41:35.936Z,2.70
2018-10-02T12:44:03.894Z,3.00
2018-10-02T12:46:31.661Z,3.30
2018-10-02T12:48:59.399Z,2.97
2018-10-02T12:51:27.289Z,2.80
2018-10-02T12:53:55.081Z,3.20
2018-10-02T12:56:22.891Z,2.90
2018-10-02T12:58:50.759Z,3.17
2018-10-02T13:01:18.625Z,2.90
2018-10-02T13:03:46.476Z,2.60
2018-10-02T13:06:14.255Z,3.30
2018-10-02T13:08:42.023Z,2.57
2018-10-02T13:11:09.860Z,3.03
2018-10-02T13:13:37.722Z,3.03
2018-10-02T13:16:05.536Z,2.80
2018-10-02T13:18:37.373Z,3.47
2018-10-02T13:21:05.359Z,2.80
2018-10-02T13:23:33.098Z,3.20
2018-10-02T13:26:00.873Z,2.87
2018-10-02T13:28:28.774Z,3.37
2018-10-02T13:30:56.553Z,3.20
2018-10-02T13:33:24.399Z,3.57
2018-10-02T13:35:52.311Z,2.90
2018-10-02T13:38:20.265Z,3.73
2018-10-02T13:40:48.033Z,3.50
2018-10-02T13:43:15.943Z,2.80
2018-10-02T13:45:43.713Z,3.43
2018-10-02T13:48:11.735Z,2.90
2018-10-02T13:50:39.821Z,3.23
2018-10-02T13:53:08.581Z,3.43
2018-10-02T13:55:36.614Z,3.10
2018-10-02T13:58:04.604Z,4.07
2018-10-02T14:00:32.522Z,3.57
2018-10-02T14:03:00.824Z,3.03
2018-10-02T14:05:28.680Z,3.03
2018-10-02T14:07:56.488Z,3.83
2018-10-02T14:10:24.270Z,3.30
2018-10-02T14:12:52.232Z,3.70
2018-10-02T14:15:20.149Z,3.77
2018-10-02T14:17:48.010Z,3.60
2018-10-02T14:20:15.816Z,3.70
2018-10-02T14:22:43.631Z,3.43
2018-10-02T14:25:11.596Z,3.33
2018-10-02T14:27:39.553Z,3.20
2018-10-02T14:30:07.448Z,3.90
2018-10-02T14:32:35.304Z,3.40
2018-10-02T14:35:03.198Z,3.37
2018-10-02T14:37:31.072Z,3.37
2018-10-02T14:39:59.473Z,3.30
2018-10-02T14:42:27.307Z,4.10
2018-10-02T14:44:55.587Z,3.83
2018-10-02T14:47:23.416Z,3.70
2018-10-02T14:49:51.284Z,4.27
2018-10-02T14:52:19.075Z,3.83
2018-10-02T14:54:46.868Z,4.10
2018-10-02T14:57:14.751Z,4.10
2018-10-02T14:59:42.547Z,4.40
2018-10-02T15:02:10.539Z,4.27
2018-10-02T15:04:38.442Z,3.10
2018-10-02T15:07:10.004Z,4.07
2018-10-02T15:09:38.063Z,4.63
2018-10-02T15:12:06.040Z,4.30
2018-10-02T15:14:33.932Z,3.90
2018-10-02T15:17:01.846Z,4.37
2018-10-02T15:19:29.692Z,4.63
2018-10-02T15:21:57.694Z,4.10
2018-10-02T15:24:27.911Z,3.57
2018-10-02T15:26:56.481Z,4.33
2018-10-02T15:29:24.476Z,4.10
2018-10-02T15:31:52.321Z,3.70
2018-10-02T15:34:20.104Z,4.67
2018-10-02T15:36:47.948Z,4.63
2018-10-02T15:39:15.807Z,3.20
2018-10-02T15:41:43.668Z,3.47
2018-10-02T15:44:11.528Z,3.47
2018-10-02T15:46:39.368Z,3.63
2018-10-02T15:49:07.220Z,2.80
2018-10-02T15:51:39.247Z,3.43
2018-10-02T15:54:07.337Z,3.63
2018-10-02T15:56:35.149Z,4.33
2018-10-02T15:59:03.012Z,3.23
2018-10-02T16:01:30.764Z,3.27
2018-10-02T16:03:58.706Z,3.10
2018-10-02T16:06:26.510Z,3.30
2018-10-02T16:08:54.348Z,2.80
2018-10-02T16:11:22.300Z,3.23
2018-10-02T16:13:50.049Z,3.33
2018-10-02T16:16:17.809Z,2.97
2018-10-02T16:18:45.587Z,3.00
2018-10-02T16:21:13.408Z,2.40
2018-10-02T16:23:41.244Z,3.10
2018-10-02T16:26:09.044Z,2.80
2018-10-02T16:28:36.868Z,2.30
2018-10-02T16:31:04.991Z,2.13
2018-10-02T16:33:32.779Z,2.60
2018-10-02T16:36:00.659Z,2.40
2018-10-02T16:38:28.560Z,2.47
2018-10-02T16:40:56.454Z,2.30
2018-10-02T16:43:24.178Z,2.90
2018-10-02T16:45:51.951Z,2.50
2018-10-02T16:48:19.819Z,2.20
2018-10-02T16:50:47.592Z,3.00
2018-10-02T16:53:15.349Z,2.50
2018-10-02T16:55:46.535Z,1.90
2018-10-02T16:58:14.325Z,1.90
2018-10-02T17:00:42.131Z,1.97
2018-10-02T17:03:09.915Z,2.23
2018-10-02T17:05:37.718Z,1.83
2018-10-02T17:08:05.584Z,1.50
2018-10-02T17:10:33.399Z,1.60
2018-10-02T17:13:01.171Z,1.60
2018-10-02T17:15:28.976Z,1.63
2018-10-02T17:17:56.895Z,1.63
2018-10-02T17:20:24.689Z,1.70
2018-10-02T17:22:52.583Z,2.17
2018-10-02T17:25:20.411Z,1.80
2018-10-02T17:27:48.203Z,2.20
2018-10-02T17:30:16.065Z,2.27
2018-10-02T17:32:43.931Z,1.50
2018-10-02T17:35:11.734Z,1.50
2018-10-02T17:37:39.495Z,1.40
2018-10-02T17:40:07.271Z,1.30
2018-10-02T17:42:34.987Z,1.50
2018-10-02T17:45:02.845Z,1.57
2018-10-02T17:47:30.619Z,1.40
2018-10-02T17:49:58.353Z,1.60
2018-10-02T17:52:26.201Z,1.50
2018-10-02T17:54:54.174Z,1.47
2018-10-02T17:57:21.973Z,1.47
2018-10-02T17:59:49.758Z,1.70
2018-10-02T18:02:17.543Z,1.60
2018-10-02T18:04:45.319Z,1.30
2018-10-02T18:07:13.087Z,1.40
2018-10-02T18:09:40.860Z,1.40
2018-10-02T18:12:08.840Z,1.40
2018-10-02T18:14:36.635Z,1.70
2018-10-02T18:17:04.464Z,1.70
2018-10-02T18:19:32.237Z,1.40
2018-10-02T18:22:00.069Z,1.63
2018-10-02T18:24:27.906Z,2.03
2018-10-02T18:26:55.694Z,2.00
2018-10-02T18:29:23.463Z,1.67
2018-10-02T18:31:51.313Z,1.40
2018-10-02T18:34:19.161Z,1.97
2018-10-02T18:36:46.956Z,1.93
2018-10-02T18:39:14.718Z,1.60
2018-10-02T18:41:42.564Z,1.60
2018-10-02T18:44:10.363Z,2.10
2018-10-02T18:46:38.152Z,1.53
2018-10-02T18:49:06.087Z,2.10
2018-10-02T18:51:33.851Z,2.07
2018-10-02T18:54:01.786Z,2.00
2018-10-02T18:56:29.745Z,2.00
2018-10-02T18:58:57.510Z,1.90
2018-10-02T19:01:25.303Z,2.27
2018-10-02T19:03:53.062Z,2.20
2018-10-02T19:06:22.544Z,2.20
2018-10-02T19:08:56.076Z,1.73
2018-10-02T19:11:29.793Z,2.30
2018-10-02T19:13:57.572Z,2.03
2018-10-02T19:16:25.664Z,3.47
2018-10-02T19:18:53.561Z,4.10
2018-10-02T19:21:21.287Z,3.07
2018-10-02T19:23:49.029Z,2.40
2018-10-02T19:26:18.643Z,2.17
2018-10-02T19:28:46.580Z,2.20
2018-10-02T19:31:20.126Z,2.10
2018-10-02T19:33:48.154Z,2.47
2018-10-02T19:36:16.172Z,2.20
2018-10-02T19:38:53.272Z,2.33
2018-10-02T19:41:21.047Z,2.53
2018-10-02T19:43:48.867Z,2.50
2018-10-02T19:46:23.924Z,2.60
2018-10-02T19:48:51.717Z,2.40
2018-10-02T19:51:25.357Z,2.77
2018-10-02T19:53:53.104Z,3.00
2018-10-02T19:56:21.194Z,2.80
2018-10-02T19:58:49.241Z,2.97
2018-10-02T20:01:17.027Z,3.20
2018-10-02T20:03:44.821Z,3.00
2018-10-02T20:06:12.636Z,3.23
2018-10-02T20:08:40.440Z,3.33
2018-10-02T20:11:08.172Z,3.40
2018-10-02T20:13:36.170Z,3.70
2018-10-02T20:16:03.844Z,3.57
2018-10-02T20:18:31.684Z,3.83
2018-10-02T20:20:59.535Z,3.60
2018-10-02T20:23:27.393Z,3.40
2018-10-02T20:25:55.147Z,4.07
2018-10-02T20:28:22.988Z,3.73
2018-10-02T20:30:50.776Z,4.07
2018-10-02T20:33:18.573Z,3.50
2018-10-02T20:35:46.323Z,4.03
2018-10-02T20:38:14.100Z,3.70
2018-10-02T20:40:41.811Z,4.17
2018-10-02T20:43:09.637Z,4.60
2018-10-02T20:45:37.439Z,4.57
2018-10-02T20:48:05.400Z,4.50
2018-10-02T20:50:33.239Z,4.17
2018-10-02T20:53:01.068Z,4.87
2018-10-02T20:55:28.868Z,4.33
2018-10-02T20:57:56.709Z,4.47
2018-10-02T21:00:24.444Z,5.60
2018-10-02T21:02:52.288Z,5.30
2018-10-02T21:05:20.130Z,5.00
2018-10-02T21:07:47.917Z,5.30
2018-10-02T21:10:15.736Z,5.03
2018-10-02T21:12:43.576Z,5.60
2018-10-02T21:15:11.522Z,5.93
2018-10-02T21:17:39.276Z,5.37
2018-10-02T21:20:07.446Z,5.40
2018-10-02T21:22:35.239Z,6.20
2018-10-02T21:25:03.195Z,6.40
2018-10-02T21:27:31.015Z,6.13
2018-10-02T21:29:59.032Z,5.73
2018-10-02T21:32:26.811Z,6.10
2018-10-02T21:34:54.628Z,5.17
2018-10-02T21:37:22.424Z,5.63
2018-10-02T21:39:50.304Z,6.50
2018-10-02T21:42:18.006Z,5.57
2018-10-02T21:44:45.796Z,6.87
2018-10-02T21:47:13.615Z,6.73
2018-10-02T21:49:41.446Z,6.87
2018-10-02T21:52:09.376Z,6.60
2018-10-02T21:54:37.189Z,7.10
2018-10-02T21:57:05.047Z,6.47
2018-10-02T21:59:32.858Z,7.13
2018-10-02T22:02:00.663Z,6.73
2018-10-02T22:04:28.443Z,7.23
2018-10-02T22:06:56.227Z,6.20
2018-10-02T22:09:24.020Z,6.90
2018-10-02T22:11:51.815Z,7.10
2018-10-02T22:14:19.635Z,6.70
2018-10-02T22:16:47.439Z,6.77
2018-10-02T22:19:15.277Z,7.33
2018-10-02T22:21:43.027Z,7.60
2018-10-02T22:24:10.965Z,6.97
2018-10-02T22:26:38.744Z,7.37
2018-10-02T22:29:06.551Z,6.57
2018-10-02T22:31:34.451Z,7.97
2018-10-02T22:34:02.187Z,7.70
2018-10-02T22:36:30.072Z,6.77
2018-10-02T22:38:57.900Z,7.30
2018-10-02T22:41:25.713Z,8.60
2018-10-02T22:43:53.547Z,7.40
2018-10-02T22:46:21.343Z,7.63
2018-10-02T22:48:49.126Z,7.70
2018-10-02T22:51:16.987Z,6.87
2018-10-02T22:53:44.832Z,6.77
2018-10-02T22:56:12.600Z,7.60
2018-10-02T22:58:40.346Z,6.80
2018-10-02T23:01:08.139Z,7.47
2018-10-02T23:03:36.003Z,7.70
2018-10-02T23:06:03.792Z,6.77
2018-10-02T23:08:31.711Z,7.40
2018-10-02T23:10:59.504Z,7.30
2018-10-02T23:13:27.219Z,7.10
2018-10-02T23:15:55.068Z,7.13
2018-10-02T23:18:22.878Z,7.20
2018-10-02T23:20:50.744Z,6.70
2018-10-02T23:23:18.567Z,6.43
2018-10-02T23:25:46.355Z,6.30
2018-10-02T23:28:14.176Z,6.17
2018-10-02T23:30:42.035Z,6.63
2018-10-02T23:33:09.840Z,7.23
2018-10-02T23:35:37.667Z,6.80
2018-10-02T23:38:05.520Z,7.33
2018-10-02T23:40:33.298Z,7.57
2018-10-02T23:43:01.051Z,7.40
2018-10-02T23:45:28.982Z,7.47
2018-10-02T23:47:56.783Z,6.70
2018-10-02T23:50:24.688Z,6.87
2018-10-02T23:52:52.540Z,6.67
2018-10-02T23:55:20.436Z,6.37
2018-10-02T23:57:48.151Z,6.67
